createdAt,value
2023-03-20T00:00:19.193Z,5.32
2023-03-20T00:01:51.912Z,6.10
2023-03-20T00:03:24.930Z,6.50
2023-03-20T00:04:57.721Z,4.72
2023-03-20T00:06:30.485Z,5.17
2023-03-20T00:08:03.198Z,5.53
2023-03-20T00:09:35.463Z,5.53
2023-03-20T00:11:21.333Z,6.20
2023-03-20T00:12:57.286Z,5.70
2023-03-20T00:14:30.210Z,5.30
2023-03-20T00:16:03.071Z,5.90
2023-03-20T00:17:34.874Z,5.53
2023-03-20T00:19:14.206Z,6.27
2023-03-20T00:20:47.122Z,5.65
2023-03-20T00:22:19.943Z,5.57
2023-03-20T00:23:52.664Z,6.00
2023-03-20T00:25:27.052Z,6.82
2023-03-20T00:26:59.909Z,6.13
2023-03-20T00:28:40.719Z,6.40
2023-03-20T00:30:29.357Z,6.00
2023-03-20T00:32:02.072Z,6.10
2023-03-20T00:33:34.923Z,5.90
2023-03-20T00:35:21.102Z,6.10
2023-03-20T00:36:54.828Z,6.25
2023-03-20T00:38:26.630Z,7.37
2023-03-20T00:39:59.335Z,6.90
2023-03-20T00:41:36.616Z,6.20
2023-03-20T00:43:12.811Z,7.18
2023-03-20T00:44:53.771Z,7.10
2023-03-20T00:46:27.128Z,6.75
2023-03-20T00:47:59.314Z,8.27
2023-03-20T00:49:34.866Z,7.27
2023-03-20T00:51:08.273Z,7.07
2023-03-20T00:52:40.948Z,6.82
2023-03-20T00:54:14.794Z,7.10
2023-03-20T00:55:47.506Z,6.67
2023-03-20T00:57:24.038Z,6.67
2023-03-20T00:58:56.795Z,8.47
2023-03-20T01:00:39.559Z,7.00
2023-03-20T01:02:11.744Z,7.53
2023-03-20T01:03:44.949Z,6.80
2023-03-20T01:05:17.802Z,7.30
2023-03-20T01:06:50.798Z,9.87
2023-03-20T01:08:25.485Z,8.90
2023-03-20T01:09:58.212Z,7.20
2023-03-20T01:11:31.306Z,7.63
2023-03-20T01:13:03.228Z,8.05
2023-03-20T01:14:36.115Z,7.17
2023-03-20T01:16:21.567Z,7.15
2023-03-20T01:17:54.318Z,7.33
2023-03-20T01:19:27.251Z,7.43
2023-03-20T01:20:59.958Z,7.97
2023-03-20T01:22:31.724Z,7.82
2023-03-20T01:24:04.606Z,7.28
2023-03-20T01:25:38.112Z,7.55
2023-03-20T01:27:14.209Z,8.13
2023-03-20T01:28:47.477Z,8.20
2023-03-20T01:30:23.303Z,7.60
2023-03-20T01:31:56.561Z,8.63
2023-03-20T01:33:30.810Z,8.90
2023-03-20T01:35:02.654Z,8.48
2023-03-20T01:36:35.350Z,8.82
2023-03-20T01:38:13.529Z,8.43
2023-03-20T01:39:46.426Z,9.25
2023-03-20T01:41:19.608Z,9.53
2023-03-20T01:42:53.732Z,10.45
2023-03-20T01:44:29.811Z,10.38
2023-03-20T01:46:04.783Z,9.63
2023-03-20T01:47:38.842Z,9.60
2023-03-20T01:49:45.556Z,10.65
2023-03-20T01:51:18.648Z,9.38
2023-03-20T01:52:54.470Z,8.93
2023-03-20T01:54:30.810Z,10.87
2023-03-20T01:56:03.574Z,11.83
2023-03-20T01:57:35.496Z,9.40
2023-03-20T01:59:14.314Z,10.15
2023-03-20T02:00:48.937Z,9.48
2023-03-20T02:02:24.608Z,12.32
2023-03-20T02:03:58.726Z,10.52
2023-03-20T02:05:32.262Z,9.95
2023-03-20T02:07:05.245Z,9.77
2023-03-20T02:08:42.844Z,10.50
2023-03-20T02:10:16.309Z,11.20
2023-03-20T02:11:49.968Z,10.90
2023-03-20T02:13:23.641Z,10.47
2023-03-20T02:14:56.091Z,9.20
2023-03-20T02:16:28.901Z,10.98
2023-03-20T02:18:00.720Z,10.27
2023-03-20T02:19:47.805Z,9.93
2023-03-20T02:22:00.385Z,10.38
2023-03-20T02:24:05.532Z,11.53
2023-03-20T02:26:03.135Z,11.82
2023-03-20T02:27:43.262Z,10.38
2023-03-20T02:29:57.960Z,10.77
2023-03-20T02:32:00.861Z,9.60
2023-03-20T02:34:22.378Z,11.45
2023-03-20T02:36:27.199Z,9.80
2023-03-20T02:38:32.472Z,12.13
2023-03-20T02:40:16.098Z,9.60
2023-03-20T02:41:57.297Z,10.90
2023-03-20T02:43:42.160Z,10.30
2023-03-20T02:45:21.607Z,12.27
2023-03-20T02:47:01.138Z,11.40
2023-03-20T02:48:42.880Z,12.17
2023-03-20T02:50:20.213Z,11.20
2023-03-20T02:51:59.811Z,10.80
2023-03-20T02:53:38.187Z,9.75
2023-03-20T02:55:19.253Z,10.00
2023-03-20T02:57:01.772Z,11.55
2023-03-20T02:58:39.000Z,10.60
2023-03-20T03:00:16.816Z,12.83
2023-03-20T03:01:54.221Z,9.95
2023-03-20T03:03:34.232Z,11.50
2023-03-20T03:05:16.313Z,12.45
2023-03-20T03:06:52.566Z,10.43
2023-03-20T03:08:29.790Z,11.90
2023-03-20T03:10:06.780Z,11.63
2023-03-20T03:11:45.953Z,11.45
2023-03-20T03:13:23.015Z,10.90
2023-03-20T03:14:58.238Z,10.85
2023-03-20T03:16:34.762Z,11.10
2023-03-20T03:18:11.437Z,11.05
2023-03-20T03:19:48.002Z,11.17
2023-03-20T03:21:22.351Z,12.05
2023-03-20T03:22:55.074Z,11.82
2023-03-20T03:24:40.747Z,11.80
2023-03-20T03:26:18.770Z,12.07
2023-03-20T03:28:02.755Z,11.68
2023-03-20T03:29:40.563Z,14.60
2023-03-20T03:31:17.465Z,11.40
2023-03-20T03:32:52.370Z,10.40
2023-03-20T03:34:25.318Z,11.43
2023-03-20T03:36:04.479Z,12.48
2023-03-20T03:37:43.544Z,14.25
2023-03-20T03:39:25.850Z,12.23
2023-03-20T03:41:15.508Z,11.05
2023-03-20T03:42:57.780Z,13.38
2023-03-20T03:44:36.281Z,14.13
2023-03-20T03:46:12.568Z,11.73
2023-03-20T03:47:52.089Z,12.43
2023-03-20T03:49:28.957Z,13.02
2023-03-20T03:51:06.387Z,12.75
2023-03-20T03:52:41.123Z,15.50
2023-03-20T03:54:16.658Z,13.65
2023-03-20T03:55:52.216Z,13.40
2023-03-20T03:57:29.740Z,13.40
2023-03-20T03:59:08.707Z,15.77
2023-03-20T04:00:43.415Z,12.13
2023-03-20T04:02:19.110Z,12.43
2023-03-20T04:03:56.186Z,13.57
2023-03-20T04:05:31.442Z,12.05
2023-03-20T04:07:04.397Z,12.30
2023-03-20T04:08:37.198Z,12.40
2023-03-20T04:10:10.090Z,11.93
2023-03-20T04:11:42.794Z,12.53
2023-03-20T04:13:16.365Z,13.80
2023-03-20T04:14:50.370Z,14.93
2023-03-20T04:16:24.898Z,14.68
2023-03-20T04:17:57.729Z,12.75
2023-03-20T04:19:30.526Z,13.20
2023-03-20T04:21:03.247Z,14.43
2023-03-20T04:22:36.272Z,13.85
2023-03-20T04:24:09.247Z,13.27
2023-03-20T04:25:42.082Z,14.55
2023-03-20T04:27:14.871Z,13.20
2023-03-20T04:28:47.568Z,13.07
2023-03-20T04:30:21.907Z,13.93
2023-03-20T04:31:54.703Z,15.73
2023-03-20T04:33:28.326Z,14.13
2023-03-20T04:35:01.012Z,15.70
2023-03-20T04:36:33.717Z,17.90
2023-03-20T04:38:07.137Z,14.93
2023-03-20T04:39:42.298Z,14.68
2023-03-20T04:41:15.391Z,15.33
2023-03-20T04:42:48.237Z,15.53
2023-03-20T04:44:20.962Z,14.45
2023-03-20T04:45:55.195Z,13.77
2023-03-20T04:47:26.927Z,16.17
2023-03-20T04:48:59.611Z,19.05
2023-03-20T04:50:31.482Z,15.55
2023-03-20T04:52:04.299Z,18.15
2023-03-20T04:53:36.642Z,15.75
2023-03-20T04:55:09.647Z,20.63
2023-03-20T04:56:42.326Z,21.85
2023-03-20T04:58:15.198Z,20.35
2023-03-20T04:59:47.876Z,20.85
2023-03-20T05:01:23.201Z,20.50
2023-03-20T05:02:55.945Z,24.23
2023-03-20T05:04:28.815Z,20.83
2023-03-20T05:06:00.725Z,25.35
2023-03-20T05:07:34.060Z,26.58
2023-03-20T05:09:07.022Z,30.50
2023-03-20T05:10:39.742Z,34.00
2023-03-20T05:12:12.527Z,31.83
2023-03-20T05:13:45.227Z,32.30
2023-03-20T05:15:18.056Z,36.47
2023-03-20T05:16:52.294Z,37.43
2023-03-20T05:18:25.159Z,32.63
2023-03-20T05:19:58.190Z,35.45
2023-03-20T05:21:29.990Z,35.38
2023-03-20T05:23:05.814Z,35.20
2023-03-20T05:24:38.946Z,38.97
2023-03-20T05:26:11.697Z,37.60
2023-03-20T05:27:45.634Z,40.28
2023-03-20T05:29:18.339Z,40.57
2023-03-20T05:30:51.060Z,40.53
2023-03-20T05:32:25.384Z,40.85
2023-03-20T05:33:58.213Z,42.80
2023-03-20T05:35:29.933Z,42.53
2023-03-20T05:37:02.852Z,45.65
2023-03-20T05:38:35.572Z,41.23
2023-03-20T05:40:11.623Z,41.28
2023-03-20T05:41:45.940Z,38.87
2023-03-20T05:43:18.739Z,37.73
2023-03-20T05:44:50.526Z,36.33
2023-03-20T05:46:23.809Z,34.17
2023-03-20T05:47:57.846Z,37.33
2023-03-20T05:49:30.730Z,38.40
2023-03-20T05:51:03.608Z,35.45
2023-03-20T05:52:36.342Z,35.83
2023-03-20T05:54:09.059Z,33.40
2023-03-20T05:55:44.511Z,36.67
2023-03-20T05:57:17.581Z,36.93
2023-03-20T05:58:50.295Z,38.05
2023-03-20T06:00:24.346Z,41.95
2023-03-20T06:01:57.032Z,42.67
2023-03-20T06:03:31.137Z,45.47
2023-03-20T06:05:04.440Z,44.97
2023-03-20T06:06:38.167Z,44.17
2023-03-20T06:08:10.903Z,46.17
2023-03-20T06:09:43.594Z,46.67
2023-03-20T06:11:16.309Z,49.50
2023-03-20T06:12:49.030Z,49.20
2023-03-20T06:14:21.737Z,55.47
2023-03-20T06:15:54.465Z,53.13
2023-03-20T06:17:27.174Z,55.40
2023-03-20T06:19:01.256Z,52.63
2023-03-20T06:20:34.088Z,60.60
2023-03-20T06:22:07.078Z,55.53
2023-03-20T06:23:39.835Z,59.42
2023-03-20T06:25:12.518Z,53.15
2023-03-20T06:26:45.409Z,58.73
2023-03-20T06:28:18.108Z,59.67
2023-03-20T06:29:50.911Z,57.97
2023-03-20T06:31:23.728Z,56.35
2023-03-20T06:32:56.447Z,56.47
2023-03-20T06:34:31.494Z,57.40
2023-03-20T06:36:04.681Z,57.63
2023-03-20T06:37:37.786Z,54.77
2023-03-20T06:39:10.778Z,59.10
2023-03-20T06:40:45.114Z,55.08
2023-03-20T06:42:18.416Z,61.57
2023-03-20T06:43:51.108Z,56.47
2023-03-20T06:45:23.811Z,58.43
2023-03-20T06:46:56.093Z,58.10
2023-03-20T06:48:28.927Z,62.23
2023-03-20T06:50:03.145Z,57.80
2023-03-20T06:51:35.840Z,65.07
2023-03-20T06:53:08.720Z,65.25
2023-03-20T06:54:42.061Z,65.57
2023-03-20T06:56:14.780Z,62.93
2023-03-20T06:57:47.495Z,65.68
2023-03-20T06:59:20.201Z,67.80
2023-03-20T07:00:54.552Z,60.33
2023-03-20T07:02:27.880Z,65.03
2023-03-20T07:04:01.044Z,66.77
2023-03-20T07:05:35.595Z,68.07
2023-03-20T07:07:08.522Z,63.75
2023-03-20T07:08:41.381Z,68.73
2023-03-20T07:10:14.098Z,66.70
2023-03-20T07:11:46.823Z,61.85
2023-03-20T07:13:20.593Z,74.87
2023-03-20T07:14:53.302Z,68.50
2023-03-20T07:16:25.997Z,68.95
2023-03-20T07:17:58.764Z,63.95
2023-03-20T07:19:31.491Z,67.82
2023-03-20T07:21:07.849Z,69.03
2023-03-20T07:22:42.418Z,68.67
2023-03-20T07:24:15.264Z,67.70
2023-03-20T07:25:48.506Z,64.65
2023-03-20T07:27:22.220Z,65.88
2023-03-20T07:28:55.200Z,63.80
2023-03-20T07:30:28.071Z,67.28
2023-03-20T07:32:02.457Z,68.97
2023-03-20T07:33:35.151Z,64.67
2023-03-20T07:35:09.182Z,66.78
2023-03-20T07:36:43.533Z,63.97
2023-03-20T07:38:16.252Z,64.10
2023-03-20T07:39:49.132Z,60.88
2023-03-20T07:41:21.820Z,66.70
2023-03-20T07:42:54.567Z,67.63
2023-03-20T07:44:27.274Z,67.43
2023-03-20T07:46:02.565Z,62.17
2023-03-20T07:47:35.362Z,68.27
2023-03-20T07:49:08.129Z,65.07
2023-03-20T07:50:40.826Z,67.03
2023-03-20T07:52:15.040Z,67.10
2023-03-20T07:53:47.726Z,65.23
2023-03-20T07:55:20.455Z,67.82
2023-03-20T07:56:53.799Z,70.15
2023-03-20T07:58:26.551Z,65.27
2023-03-20T07:59:59.240Z,61.13
2023-03-20T08:01:31.933Z,60.73
2023-03-20T08:03:04.821Z,62.70
2023-03-20T08:04:37.553Z,59.77
2023-03-20T08:06:11.187Z,62.63
2023-03-20T08:07:45.949Z,57.90
2023-03-20T08:09:19.301Z,58.60
2023-03-20T08:10:51.992Z,59.00
2023-03-20T08:12:24.757Z,56.57
2023-03-20T08:13:57.432Z,53.65
2023-03-20T08:15:30.154Z,54.87
2023-03-20T08:17:14.263Z,53.63
2023-03-20T08:18:47.467Z,55.73
2023-03-20T08:20:21.634Z,54.17
2023-03-20T08:21:54.392Z,50.33
2023-03-20T08:23:28.980Z,50.70
2023-03-20T08:25:01.784Z,49.70
2023-03-20T08:26:34.492Z,49.92
2023-03-20T08:28:07.308Z,50.07
2023-03-20T08:29:39.993Z,51.33
2023-03-20T08:31:12.714Z,49.70
2023-03-20T08:32:45.477Z,51.43
2023-03-20T08:34:18.256Z,53.63
2023-03-20T08:35:57.704Z,50.00
2023-03-20T08:37:30.555Z,48.63
2023-03-20T08:39:04.700Z,53.13
2023-03-20T08:40:37.427Z,50.97
2023-03-20T08:42:10.155Z,49.73
2023-03-20T08:43:42.891Z,49.30
2023-03-20T08:45:16.894Z,50.70
2023-03-20T08:46:49.662Z,52.83
2023-03-20T08:48:22.631Z,49.20
2023-03-20T08:49:55.835Z,52.13
2023-03-20T08:51:28.634Z,53.43
2023-03-20T08:53:01.319Z,51.40
2023-03-20T08:54:35.539Z,51.17
2023-03-20T08:56:09.830Z,42.37
2023-03-20T08:57:42.910Z,44.63
2023-03-20T08:59:16.280Z,44.10
2023-03-20T09:00:49.079Z,43.10
2023-03-20T09:02:21.948Z,46.23
2023-03-20T09:03:54.725Z,44.80
2023-03-20T09:05:27.467Z,44.90
2023-03-20T09:07:01.206Z,44.60
2023-03-20T09:08:34.148Z,44.43
2023-03-20T09:10:09.813Z,42.00
2023-03-20T09:11:42.836Z,41.70
2023-03-20T09:13:26.589Z,37.27
2023-03-20T09:15:01.184Z,34.33
2023-03-20T09:16:34.099Z,28.80
2023-03-20T09:18:06.975Z,25.20
2023-03-20T09:19:42.556Z,27.17
2023-03-20T09:21:15.479Z,28.53
2023-03-20T09:22:48.263Z,28.43
2023-03-20T09:24:21.018Z,28.00
2023-03-20T09:25:55.078Z,28.17
2023-03-20T09:27:27.896Z,24.03
2023-03-20T09:29:00.859Z,20.53
2023-03-20T09:30:33.896Z,22.37
2023-03-20T09:32:07.224Z,20.13
2023-03-20T09:33:40.032Z,22.13
2023-03-20T09:35:12.775Z,19.40
2023-03-20T09:36:45.562Z,20.20
2023-03-20T09:38:18.628Z,17.13
2023-03-20T09:39:51.369Z,16.50
2023-03-20T09:41:28.334Z,16.53
2023-03-20T09:43:11.817Z,15.00
2023-03-20T09:44:55.631Z,13.73
2023-03-20T09:46:40.891Z,13.93
2023-03-20T09:48:20.258Z,15.17
2023-03-20T09:50:05.862Z,12.47
2023-03-20T09:51:44.835Z,16.67
2023-03-20T09:53:21.669Z,23.57
2023-03-20T09:54:57.353Z,22.30
2023-03-20T09:56:32.227Z,22.33
2023-03-20T09:58:12.903Z,21.27
2023-03-20T09:59:46.025Z,20.27
2023-03-20T10:01:20.818Z,21.60
2023-03-20T10:02:57.484Z,19.60
2023-03-20T10:04:31.107Z,22.87
2023-03-20T10:06:06.899Z,21.13
2023-03-20T10:07:39.651Z,21.53
2023-03-20T10:09:17.772Z,22.50
2023-03-20T10:10:53.046Z,16.87
2023-03-20T10:12:44.642Z,16.50
2023-03-20T10:14:28.883Z,13.73
2023-03-20T10:16:09.011Z,13.10
2023-03-20T10:17:51.720Z,11.10
2023-03-20T10:19:28.740Z,11.93
2023-03-20T10:21:05.700Z,10.40
2023-03-20T10:22:43.439Z,10.60
2023-03-20T10:24:21.619Z,9.50
2023-03-20T10:25:59.552Z,8.40
2023-03-20T10:27:35.996Z,9.57
2023-03-20T10:29:20.994Z,8.73
2023-03-20T10:31:06.259Z,8.67
2023-03-20T10:32:45.911Z,10.70
2023-03-20T10:34:29.651Z,9.00
2023-03-20T10:36:14.647Z,9.23
2023-03-20T10:38:00.242Z,9.03
2023-03-20T10:39:50.083Z,7.77
2023-03-20T10:41:28.529Z,9.13
2023-03-20T10:43:05.237Z,7.47
2023-03-20T10:44:41.535Z,9.00
2023-03-20T10:46:17.981Z,10.63
2023-03-20T10:47:53.345Z,7.77
2023-03-20T10:49:33.561Z,9.67
2023-03-20T10:51:11.250Z,8.93
2023-03-20T10:52:45.043Z,8.93
2023-03-20T10:54:25.357Z,10.53
2023-03-20T10:56:01.359Z,10.23
2023-03-20T10:57:41.901Z,8.10
2023-03-20T10:59:23.088Z,6.90
2023-03-20T11:00:57.467Z,10.03
2023-03-20T11:02:32.088Z,7.50
2023-03-20T11:04:04.958Z,7.30
2023-03-20T11:05:38.377Z,8.43
2023-03-20T11:07:18.529Z,7.93
2023-03-20T11:08:53.095Z,7.20
2023-03-20T11:10:28.237Z,7.50
2023-03-20T11:12:03.661Z,8.40
2023-03-20T11:13:39.397Z,9.60
2023-03-20T11:15:25.329Z,11.27
2023-03-20T11:17:03.834Z,7.70
2023-03-20T11:18:36.719Z,7.50
2023-03-20T11:20:14.829Z,7.67
2023-03-20T11:21:50.701Z,7.53
2023-03-20T11:23:27.601Z,5.67
2023-03-20T11:25:02.781Z,6.77
2023-03-20T11:26:38.436Z,6.67
2023-03-20T11:28:36.163Z,4.43
2023-03-20T11:30:17.852Z,4.93
2023-03-20T11:31:52.378Z,3.87
2023-03-20T11:33:27.763Z,5.37
2023-03-20T11:35:12.956Z,3.63
2023-03-20T11:37:08.570Z,4.07
2023-03-20T11:38:46.543Z,4.30
2023-03-20T11:40:25.254Z,4.10
2023-03-20T11:42:00.379Z,4.50
2023-03-20T11:43:38.878Z,4.47
2023-03-20T11:45:17.925Z,9.80
2023-03-20T11:46:58.324Z,3.83
2023-03-20T11:48:38.910Z,4.37
2023-03-20T11:50:26.908Z,3.50
2023-03-20T11:52:02.514Z,3.93
2023-03-20T11:53:39.387Z,4.93
2023-03-20T11:55:25.720Z,4.30
2023-03-20T11:56:59.750Z,4.77
2023-03-20T11:58:33.494Z,4.47
2023-03-20T12:00:17.512Z,4.37
2023-03-20T12:01:52.486Z,4.63
2023-03-20T12:03:42.092Z,4.97
2023-03-20T12:05:36.767Z,4.30
2023-03-20T12:07:14.985Z,3.90
2023-03-20T12:08:55.349Z,3.63
2023-03-20T12:10:33.328Z,5.40
2023-03-20T12:12:14.504Z,3.50
2023-03-20T12:13:49.446Z,3.43
2023-03-20T12:15:26.492Z,3.17
2023-03-20T12:17:15.176Z,3.23
2023-03-20T12:18:53.726Z,2.70
2023-03-20T12:20:33.356Z,3.67
2023-03-20T12:22:17.588Z,2.87
2023-03-20T12:23:53.968Z,2.83
2023-03-20T12:25:28.685Z,3.07
2023-03-20T12:27:15.406Z,3.30
2023-03-20T12:28:55.634Z,2.67
2023-03-20T12:30:35.485Z,3.07
2023-03-20T12:32:16.427Z,3.27
2023-03-20T12:33:53.645Z,2.70
2023-03-20T12:35:29.426Z,4.20
2023-03-20T12:37:02.361Z,3.13
2023-03-20T12:38:35.269Z,3.00
2023-03-20T12:40:17.184Z,3.07
2023-03-20T12:41:59.589Z,3.30
2023-03-20T12:43:39.045Z,4.23
2023-03-20T12:45:13.650Z,4.27
2023-03-20T12:46:52.520Z,4.07
2023-03-20T12:48:49.681Z,3.77
2023-03-20T12:50:31.619Z,2.90
2023-03-20T12:52:13.778Z,5.10
2023-03-20T12:53:56.056Z,2.23
2023-03-20T12:55:39.328Z,3.03
2023-03-20T12:57:22.107Z,3.67
2023-03-20T12:59:00.411Z,3.13
2023-03-20T13:00:37.062Z,5.30
2023-03-20T13:02:25.287Z,6.87
2023-03-20T13:04:20.240Z,6.40
2023-03-20T13:06:04.248Z,5.07
2023-03-20T13:07:54.342Z,5.53
2023-03-20T13:09:52.017Z,5.13
2023-03-20T13:11:31.894Z,4.17
2023-03-20T13:13:17.032Z,3.50
2023-03-20T13:14:57.377Z,3.47
2023-03-20T13:16:41.041Z,3.87
2023-03-20T13:18:21.888Z,3.77
2023-03-20T13:20:06.962Z,3.33
2023-03-20T13:21:46.290Z,4.30
2023-03-20T13:23:24.264Z,7.37
2023-03-20T13:25:05.904Z,5.93
2023-03-20T13:26:43.099Z,4.67
2023-03-20T13:28:23.575Z,6.63
2023-03-20T13:30:02.696Z,5.87
2023-03-20T13:31:47.740Z,5.37
2023-03-20T13:33:35.998Z,7.30
2023-03-20T13:35:36.769Z,4.77
2023-03-20T13:37:23.985Z,5.77
2023-03-20T13:39:04.682Z,5.60
2023-03-20T13:40:43.461Z,5.53
2023-03-20T13:42:20.920Z,6.93
2023-03-20T13:43:58.647Z,6.43
2023-03-20T13:45:35.965Z,8.10
2023-03-20T13:47:14.495Z,6.30
2023-03-20T13:48:47.909Z,7.07
2023-03-20T13:50:34.975Z,6.43
2023-03-20T13:52:14.701Z,5.83
2023-03-20T13:53:58.921Z,6.83
2023-03-20T13:55:42.265Z,6.97
2023-03-20T13:57:27.172Z,6.60
2023-03-20T13:59:28.450Z,6.87
2023-03-20T14:01:09.724Z,5.70
2023-03-20T14:03:03.066Z,5.87
2023-03-20T14:04:36.693Z,5.80
2023-03-20T14:06:43.439Z,7.10
2023-03-20T14:08:33.089Z,6.57
2023-03-20T14:10:38.047Z,6.30
2023-03-20T14:12:13.216Z,8.87
2023-03-20T14:13:48.770Z,5.63
2023-03-20T14:15:22.243Z,5.77
2023-03-20T14:17:20.941Z,6.60
2023-03-20T14:19:07.900Z,6.17
2023-03-20T14:20:42.780Z,6.20
2023-03-20T14:22:19.275Z,5.67
2023-03-20T14:24:03.008Z,6.60
2023-03-20T14:25:40.424Z,5.63
2023-03-20T14:27:29.835Z,5.40
2023-03-20T14:29:31.526Z,4.67
2023-03-20T14:31:14.890Z,5.07
2023-03-20T14:33:01.725Z,5.47
2023-03-20T14:34:50.590Z,5.23
2023-03-20T14:36:28.974Z,5.27
2023-03-20T14:38:24.513Z,5.47
2023-03-20T14:40:04.736Z,4.83
2023-03-20T14:41:57.393Z,5.83
2023-03-20T14:43:49.734Z,8.33
2023-03-20T14:45:39.482Z,6.03
2023-03-20T14:47:23.149Z,3.90
2023-03-20T14:48:56.944Z,6.30
2023-03-20T14:50:35.064Z,5.87
2023-03-20T14:52:23.383Z,5.20
2023-03-20T14:53:57.774Z,6.57
2023-03-20T14:55:49.187Z,4.07
2023-03-20T14:57:35.751Z,7.50
2023-03-20T14:59:15.391Z,4.47
2023-03-20T15:00:50.720Z,8.37
2023-03-20T15:02:27.771Z,5.20
2023-03-20T15:04:06.665Z,6.00
2023-03-20T15:05:40.769Z,4.67
2023-03-20T15:07:16.925Z,6.03
2023-03-20T15:08:52.887Z,4.63
2023-03-20T15:10:26.452Z,6.40
2023-03-20T15:12:04.258Z,5.17
2023-03-20T15:13:39.009Z,5.23
2023-03-20T15:15:25.536Z,5.10
2023-03-20T15:16:59.668Z,5.37
2023-03-20T15:18:37.152Z,4.13
2023-03-20T15:20:17.144Z,5.47
2023-03-20T15:21:50.553Z,5.20
2023-03-20T15:23:23.260Z,5.70
2023-03-20T15:24:57.631Z,3.83
2023-03-20T15:26:32.901Z,4.57
2023-03-20T15:28:09.268Z,5.13
2023-03-20T15:29:46.833Z,8.10
2023-03-20T15:31:24.402Z,3.63
2023-03-20T15:32:57.213Z,4.07
2023-03-20T15:34:33.391Z,4.97
2023-03-20T15:36:11.283Z,5.33
2023-03-20T15:37:45.334Z,5.20
2023-03-20T15:39:22.143Z,4.57
2023-03-20T15:40:55.138Z,4.33
2023-03-20T15:42:27.928Z,5.93
2023-03-20T15:44:16.547Z,4.43
2023-03-20T15:45:50.649Z,4.60
2023-03-20T15:47:24.975Z,3.40
2023-03-20T15:49:00.158Z,4.93
2023-03-20T15:50:34.550Z,4.27
2023-03-20T15:52:14.031Z,5.77
2023-03-20T15:53:49.334Z,4.40
2023-03-20T15:55:25.416Z,3.90
2023-03-20T15:57:00.518Z,3.30
2023-03-20T15:58:33.484Z,2.10
2023-03-20T16:00:11.166Z,2.47
2023-03-20T16:01:45.907Z,3.07
2023-03-20T16:03:21.924Z,5.23
2023-03-20T16:04:56.260Z,2.03
2023-03-20T16:06:29.302Z,2.40
2023-03-20T16:08:14.420Z,38.77
2023-03-20T16:09:47.114Z,5.10
2023-03-20T16:11:21.678Z,2.37
2023-03-20T16:12:55.344Z,3.10
2023-03-20T16:14:32.091Z,2.40
2023-03-20T16:16:10.160Z,4.53
2023-03-20T16:17:43.033Z,2.60
2023-03-20T16:19:16.121Z,2.30
2023-03-20T16:20:53.321Z,2.50
2023-03-20T16:22:28.934Z,3.70
2023-03-20T16:24:06.334Z,3.57
2023-03-20T16:25:39.177Z,2.57
2023-03-20T16:27:14.615Z,2.73
2023-03-20T16:28:48.571Z,3.00
2023-03-20T16:30:25.283Z,2.33
2023-03-20T16:32:03.884Z,2.93
2023-03-20T16:33:37.616Z,3.60
2023-03-20T16:35:17.589Z,4.20
2023-03-20T16:36:53.821Z,4.13
2023-03-20T16:38:29.124Z,3.70
2023-03-20T16:40:22.234Z,2.63
2023-03-20T16:42:12.442Z,3.63
2023-03-20T16:43:50.021Z,3.93
2023-03-20T16:45:29.839Z,3.93
2023-03-20T16:47:20.123Z,4.33
2023-03-20T16:48:56.857Z,4.83
2023-03-20T16:50:37.170Z,3.97
2023-03-20T16:52:14.192Z,5.70
2023-03-20T16:53:49.118Z,3.40
2023-03-20T16:55:29.249Z,5.23
2023-03-20T16:57:03.895Z,2.87
2023-03-20T16:58:40.960Z,5.97
2023-03-20T17:00:29.275Z,5.00
2023-03-20T17:02:03.297Z,5.77
2023-03-20T17:03:37.963Z,3.63
2023-03-20T17:05:14.402Z,3.90
2023-03-20T17:06:49.554Z,5.50
2023-03-20T17:08:32.073Z,5.07
2023-03-20T17:10:18.517Z,6.63
2023-03-20T17:11:56.578Z,3.37
2023-03-20T17:13:29.277Z,3.93
2023-03-20T17:15:01.954Z,4.50
2023-03-20T17:16:36.547Z,6.47
2023-03-20T17:18:14.301Z,4.13
2023-03-20T17:19:47.117Z,3.97
2023-03-20T17:21:19.912Z,4.10
2023-03-20T17:22:52.761Z,4.40
2023-03-20T17:24:25.506Z,4.37
2023-03-20T17:25:58.212Z,6.57
2023-03-20T17:27:31.256Z,5.63
2023-03-20T17:29:04.417Z,4.47
2023-03-20T17:30:37.266Z,5.00
2023-03-20T17:32:11.882Z,7.97
2023-03-20T17:33:46.989Z,4.17
2023-03-20T17:35:19.920Z,4.37
2023-03-20T17:36:52.723Z,4.70
2023-03-20T17:38:25.573Z,5.30
2023-03-20T17:40:00.336Z,6.17
2023-03-20T17:41:33.077Z,4.60
2023-03-20T17:43:10.303Z,7.17
2023-03-20T17:44:42.990Z,8.23
2023-03-20T17:46:18.884Z,5.87
2023-03-20T17:47:52.588Z,4.83
2023-03-20T17:49:27.948Z,7.90
2023-03-20T17:51:00.849Z,6.53
2023-03-20T17:52:33.592Z,5.73
2023-03-20T17:54:06.559Z,6.77
2023-03-20T17:55:39.585Z,8.07
2023-03-20T17:57:21.068Z,4.67
2023-03-20T17:58:53.989Z,6.20
2023-03-20T18:00:27.112Z,6.27
2023-03-20T18:02:00.021Z,3.87
2023-03-20T18:03:32.892Z,5.40
2023-03-20T18:05:08.362Z,4.57
2023-03-20T18:06:41.109Z,4.90
2023-03-20T18:08:16.120Z,4.60
2023-03-20T18:09:49.487Z,4.67
2023-03-20T18:11:22.246Z,6.40
2023-03-20T18:12:54.972Z,5.40
2023-03-20T18:14:27.672Z,4.67
2023-03-20T18:16:00.502Z,5.43
2023-03-20T18:17:33.192Z,7.03
2023-03-20T18:19:06.086Z,6.83
2023-03-20T18:20:41.872Z,7.00
2023-03-20T18:22:14.576Z,5.73
2023-03-20T18:23:47.298Z,7.63
2023-03-20T18:25:20.388Z,5.17
2023-03-20T18:26:53.708Z,7.50
2023-03-20T18:28:26.387Z,5.30
2023-03-20T18:29:59.157Z,6.13
2023-03-20T18:31:31.924Z,7.27
2023-03-20T18:33:05.997Z,6.37
2023-03-20T18:34:40.534Z,6.60
2023-03-20T18:36:16.989Z,6.70
2023-03-20T18:37:49.725Z,5.73
2023-03-20T18:39:24.720Z,4.83
2023-03-20T18:40:57.635Z,5.10
2023-03-20T18:42:30.360Z,4.45
2023-03-20T18:44:03.070Z,4.53
2023-03-20T18:45:36.014Z,6.63
2023-03-20T18:47:10.381Z,5.33
2023-03-20T18:48:43.465Z,6.13
2023-03-20T18:50:24.064Z,4.13
2023-03-20T18:51:58.094Z,4.13
2023-03-20T18:53:31.226Z,5.87
2023-03-20T18:55:04.213Z,4.87
2023-03-20T18:56:37.768Z,6.07
2023-03-20T18:58:20.624Z,6.07
2023-03-20T18:59:53.335Z,7.27
2023-03-20T19:01:27.128Z,4.60
2023-03-20T19:02:59.889Z,5.93
2023-03-20T19:04:34.998Z,3.70
2023-03-20T19:06:12.983Z,3.57
2023-03-20T19:07:47.454Z,4.80
2023-03-20T19:09:20.286Z,7.23
2023-03-20T19:10:53.496Z,3.77
2023-03-20T19:12:26.208Z,5.10
2023-03-20T19:13:58.899Z,7.73
2023-03-20T19:15:35.302Z,5.17
2023-03-20T19:17:08.004Z,8.50
2023-03-20T19:18:40.829Z,5.63
2023-03-20T19:20:41.639Z,5.03
2023-03-20T19:22:28.446Z,7.30
2023-03-20T19:24:05.871Z,7.07
2023-03-20T19:25:39.347Z,9.77
2023-03-20T19:27:17.561Z,5.67
2023-03-20T19:28:50.958Z,8.07
2023-03-20T19:30:28.933Z,6.30
2023-03-20T19:32:01.638Z,5.37
2023-03-20T19:33:33.737Z,6.00
2023-03-20T19:37:00.315Z,4.13
2023-03-20T19:38:34.205Z,4.80
2023-03-20T19:40:21.849Z,4.93
2023-03-20T19:41:54.681Z,4.37
2023-03-20T19:43:29.058Z,5.83
2023-03-20T19:45:01.989Z,5.53
2023-03-20T19:46:42.459Z,6.10
2023-03-20T19:48:17.322Z,5.00
2023-03-20T19:49:50.146Z,5.27
2023-03-20T19:51:25.456Z,5.47
2023-03-20T19:52:59.120Z,6.30
2023-03-20T19:54:31.823Z,5.37
2023-03-20T19:56:06.472Z,7.27
2023-03-20T19:57:39.193Z,7.10
2023-03-20T19:59:13.953Z,6.38
2023-03-20T20:00:58.950Z,8.03
2023-03-20T20:02:32.071Z,6.17
2023-03-20T20:04:05.205Z,4.97
2023-03-20T20:05:39.322Z,5.13
2023-03-20T20:07:53.180Z,5.67
2023-03-20T20:09:05.145Z,6.73
2023-03-20T20:10:39.732Z,5.33
2023-03-20T20:12:13.767Z,5.73
2023-03-20T20:14:07.085Z,5.30
2023-03-20T20:15:39.532Z,6.37
2023-03-20T20:17:12.493Z,9.10
2023-03-20T20:18:45.235Z,6.63
2023-03-20T20:20:24.764Z,4.83
2023-03-20T20:23:50.493Z,5.77
2023-03-20T20:25:23.258Z,6.63
2023-03-20T20:27:15.343Z,5.17
2023-03-20T20:28:50.866Z,4.67
2023-03-20T20:30:23.564Z,5.13
2023-03-20T20:31:56.500Z,5.57
2023-03-20T20:33:29.403Z,4.93
2023-03-20T20:38:51.324Z,4.65
2023-03-20T20:40:26.188Z,5.17
2023-03-20T20:41:58.915Z,7.28
2023-03-20T20:44:06.687Z,6.50
2023-03-20T20:45:30.371Z,5.75
2023-03-20T20:47:04.307Z,6.03
2023-03-20T20:48:37.764Z,6.17
2023-03-20T20:50:11.813Z,4.82
2023-03-20T20:51:44.559Z,4.85
2023-03-20T20:53:17.259Z,5.85
2023-03-20T20:54:50.012Z,6.23
2023-03-20T20:56:22.706Z,7.97
2023-03-20T20:57:56.345Z,5.60
2023-03-20T20:59:29.561Z,5.30
2023-03-20T21:01:04.145Z,5.40
2023-03-20T21:02:39.194Z,7.63
2023-03-20T21:04:12.196Z,7.53
2023-03-20T21:05:44.936Z,4.47
2023-03-20T21:07:17.660Z,6.23
2023-03-20T21:08:50.420Z,4.53
2023-03-20T21:10:23.509Z,6.68
2023-03-20T21:11:55.265Z,6.03
2023-03-20T21:13:27.934Z,4.72
2023-03-20T21:15:00.928Z,4.50
2023-03-20T21:16:34.976Z,7.40
2023-03-20T21:18:07.673Z,8.23